Thursday, April 26, 2018, 4:58 PM EDT
Back to Local

KHGR, Hagerstown Regional Airport

Location: Hagerstown, MD, United States Lat: 39.7
Local Time: 4:58 PM EDT (20:58 GMT) Lon: -77.733
Time Zone: US/Eastern Elev: 705 ft

Show me the last for .
Show Coded

Time T Td Feel RH Dir Speed Gust Alt SLP Vis Weather Sky Remarks
2018-04-26 15:53 66 37 - 34 330° 9 - 29.83 29.85 10 CLR None
2018-04-26 14:53 64 39 - 39 290° 8 - 29.86 29.88 10 CLR None
2018-04-26 13:53 63 38 - 39 300° 18 - 29.86 29.88 10 CLR 6-hr Min Temp (2pm): 48.9°F
6-hr Max Temp (2pm): 63.0°F
2018-04-26 12:53 60 39 - 45 300° 14 22 29.88 29.90 10 CLR None
2018-04-26 11:53 57 38 - 48 270° 10 18 29.89 29.91 10 CLR None
2018-04-26 10:53 55 38 - 52 310° 10 - 29.89 29.91 10 CLR None
2018-04-26 09:53 52 36 - 54 290° 12 - 29.89 29.91 10 CLR None
2018-04-26 08:53 51 37 - 58 300° 9 - 29.87 29.90 10 FEW040 None
2018-04-26 07:53 49 37 47 63 300° 6 - 29.86 29.89 10 FEW040 24-hr Precip Total (8am): 0.01"
6-hr Min Temp (8am): 45.0°F
6-hr Max Temp (8am): 48.9°F
2018-04-26 06:53 46 37 42 70 320° 8 - 29.84 29.87 10 FEW040 None
2018-04-26 05:53 47 37 44 68 Variable 7 - 29.82 29.85 10 CLR None
2018-04-26 04:53 47 37 41 68 300° 13 - 29.80 29.83 10 CLR None
2018-04-26 03:53 46 37 42 70 300° 7 - 29.80 29.83 10 CLR None
2018-04-26 02:53 48 37 46 65 310° 5 - 29.80 29.83 10 CLR None
2018-04-26 01:53 49 37 45 63 310° 10 - 29.80 29.82 10 CLR 6-hr Min Temp (2am): 48.9°F
6-hr Max Temp (2am): 63.0°F
2018-04-26 00:53 52 40 - 63 310° 18 26 29.79 29.81 10 CLR 24-hr Min Temp (1am): 51.1°F
24-hr Max Temp (1am): 66.0°F
2018-04-25 23:53 56 45 - 66 320° 14 - 29.78 29.80 10 FEW039 None
2018-04-25 23:01 59 49 - 69 310° 18 - 29.77 - 10 SCT029 OVC043 None
2018-04-25 22:53 60 50 - 69 320° 14 - 29.77 29.79 10 BKN029 BKN034 OVC045 None
2018-04-25 21:53 59 50 - 72 300° 9 - 29.76 29.78 10 SCT033 None
2018-04-25 20:53 61 52 - 72 300° 14 - 29.75 29.77 10 OVC048 None
2018-04-25 19:53 63 53 - 70 300° 7 - 29.72 29.74 10 BKN050 OVC090 6-hr Min Temp (8pm): 62.1°F
6-hr Max Temp (8pm): 66.0°F
2018-04-25 18:53 64 53 - 67 330° 7 - 29.71 29.73 10 OVC045 None
2018-04-25 17:53 65 55 - 70 320° 8 - 29.70 29.72 10 BKN031 OVC039 None

Support USWX by starting your Amazon purchase here.